sensor_id;sensor_type;location;lat;lon;timestamp;P1;durP1;ratioP1;P2;durP2;ratioP2
26512;SDS011;14186;53.822;10.152;2022-08-30T00:01:53;2.28;;;0.98;;
26512;SDS011;14186;53.822;10.152;2022-08-30T00:06:53;2.47;;;1.20;;
26512;SDS011;14186;53.822;10.152;2022-08-30T00:11:53;1.50;;;0.77;;
26512;SDS011;14186;53.822;10.152;2022-08-30T00:16:55;1.77;;;0.77;;
26512;SDS011;14186;53.822;10.152;2022-08-30T00:21:55;3.58;;;1.15;;
26512;SDS011;14186;53.822;10.152;2022-08-30T00:26:55;2.25;;;0.65;;
26512;SDS011;14186;53.822;10.152;2022-08-30T00:31:57;1.17;;;0.77;;
26512;SDS011;14186;53.822;10.152;2022-08-30T00:36:57;2.30;;;0.98;;
26512;SDS011;14186;53.822;10.152;2022-08-30T00:41:57;1.45;;;0.75;;
26512;SDS011;14186;53.822;10.152;2022-08-30T00:46:59;1.63;;;0.93;;
26512;SDS011;14186;53.822;10.152;2022-08-30T00:52:00;2.60;;;0.70;;
26512;SDS011;14186;53.822;10.152;2022-08-30T00:57:00;5.47;;;0.88;;
26512;SDS011;14186;53.822;10.152;2022-08-30T01:02:04;3.88;;;1.00;;
26512;SDS011;14186;53.822;10.152;2022-08-30T01:07:05;2.00;;;0.73;;
26512;SDS011;14186;53.822;10.152;2022-08-30T01:12:05;3.35;;;0.95;;
26512;SDS011;14186;53.822;10.152;2022-08-30T01:17:07;2.78;;;0.90;;
26512;SDS011;14186;53.822;10.152;2022-08-30T01:22:10;3.63;;;1.13;;
26512;SDS011;14186;53.822;10.152;2022-08-30T01:27:16;1.98;;;0.93;;
26512;SDS011;14186;53.822;10.152;2022-08-30T01:32:17;5.38;;;1.73;;
26512;SDS011;14186;53.822;10.152;2022-08-30T01:37:19;4.70;;;1.10;;
26512;SDS011;14186;53.822;10.152;2022-08-30T01:42:28;3.28;;;1.05;;
26512;SDS011;14186;53.822;10.152;2022-08-30T01:47:28;1.80;;;0.90;;
26512;SDS011;14186;53.822;10.152;2022-08-30T01:52:28;5.50;;;1.20;;
26512;SDS011;14186;53.822;10.152;2022-08-30T01:57:30;2.17;;;1.00;;
26512;SDS011;14186;53.822;10.152;2022-08-30T02:02:30;3.65;;;1.13;;
26512;SDS011;14186;53.822;10.152;2022-08-30T02:07:31;3.45;;;1.00;;
26512;SDS011;14186;53.822;10.152;2022-08-30T02:12:33;4.70;;;0.90;;
26512;SDS011;14186;53.822;10.152;2022-08-30T02:17:33;2.20;;;1.13;;
26512;SDS011;14186;53.822;10.152;2022-08-30T02:22:34;2.78;;;0.85;;
26512;SDS011;14186;53.822;10.152;2022-08-30T02:27:35;2.50;;;0.90;;
26512;SDS011;14186;53.822;10.152;2022-08-30T02:32:36;3.72;;;1.10;;
26512;SDS011;14186;53.822;10.152;2022-08-30T02:37:36;2.92;;;1.08;;
26512;SDS011;14186;53.822;10.152;2022-08-30T02:42:38;3.22;;;1.13;;
26512;SDS011;14186;53.822;10.152;2022-08-30T02:47:38;2.97;;;1.00;;
26512;SDS011;14186;53.822;10.152;2022-08-30T02:52:38;3.50;;;1.20;;
26512;SDS011;14186;53.822;10.152;2022-08-30T02:57:40;2.33;;;0.90;;
26512;SDS011;14186;53.822;10.152;2022-08-30T03:02:47;3.30;;;0.93;;
26512;SDS011;14186;53.822;10.152;2022-08-30T03:07:47;2.95;;;0.90;;
26512;SDS011;14186;53.822;10.152;2022-08-30T03:12:49;3.22;;;1.00;;
26512;SDS011;14186;53.822;10.152;2022-08-30T03:17:51;10.20;;;1.35;;
26512;SDS011;14186;53.822;10.152;2022-08-30T03:22:52;3.35;;;1.35;;
26512;SDS011;14186;53.822;10.152;2022-08-30T03:27:56;2.33;;;0.98;;
26512;SDS011;14186;53.822;10.152;2022-08-30T03:32:56;3.05;;;1.00;;
26512;SDS011;14186;53.822;10.152;2022-08-30T03:37:58;1.65;;;0.70;;
26512;SDS011;14186;53.822;10.152;2022-08-30T03:42:59;2.60;;;1.00;;
26512;SDS011;14186;53.822;10.152;2022-08-30T03:47:59;1.40;;;0.80;;
26512;SDS011;14186;53.822;10.152;2022-08-30T03:53:00;3.75;;;1.15;;
26512;SDS011;14186;53.822;10.152;2022-08-30T03:58:02;2.50;;;1.13;;
26512;SDS011;14186;53.822;10.152;2022-08-30T04:03:02;3.72;;;1.60;;
26512;SDS011;14186;53.822;10.152;2022-08-30T04:08:03;2.20;;;1.08;;
26512;SDS011;14186;53.822;10.152;2022-08-30T04:13:05;3.72;;;1.00;;
26512;SDS011;14186;53.822;10.152;2022-08-30T04:18:05;2.72;;;1.10;;
26512;SDS011;14186;53.822;10.152;2022-08-30T04:23:08;1.75;;;0.98;;
26512;SDS011;14186;53.822;10.152;2022-08-30T04:28:10;1.83;;;0.90;;
26512;SDS011;14186;53.822;10.152;2022-08-30T04:33:11;5.38;;;1.13;;
26512;SDS011;14186;53.822;10.152;2022-08-30T04:38:12;3.35;;;1.05;;
26512;SDS011;14186;53.822;10.152;2022-08-30T04:43:14;4.07;;;1.13;;
26512;SDS011;14186;53.822;10.152;2022-08-30T04:48:14;3.70;;;1.33;;
26512;SDS011;14186;53.822;10.152;2022-08-30T04:53:15;3.13;;;1.10;;
26512;SDS011;14186;53.822;10.152;2022-08-30T04:58:17;2.30;;;1.27;;
26512;SDS011;14186;53.822;10.152;2022-08-30T05:03:17;2.67;;;1.15;;
26512;SDS011;14186;53.822;10.152;2022-08-30T05:08:18;2.50;;;1.05;;
26512;SDS011;14186;53.822;10.152;2022-08-30T05:13:20;2.50;;;1.13;;
26512;SDS011;14186;53.822;10.152;2022-08-30T05:18:20;3.30;;;1.10;;
26512;SDS011;14186;53.822;10.152;2022-08-30T05:23:20;4.55;;;1.23;;
26512;SDS011;14186;53.822;10.152;2022-08-30T05:28:22;2.58;;;0.90;;
26512;SDS011;14186;53.822;10.152;2022-08-30T05:33:22;2.83;;;1.20;;
26512;SDS011;14186;53.822;10.152;2022-08-30T05:38:22;2.20;;;0.90;;
26512;SDS011;14186;53.822;10.152;2022-08-30T05:43:24;2.60;;;1.13;;
26512;SDS011;14186;53.822;10.152;2022-08-30T05:48:26;3.38;;;1.25;;
26512;SDS011;14186;53.822;10.152;2022-08-30T05:53:26;2.25;;;1.00;;
26512;SDS011;14186;53.822;10.152;2022-08-30T05:58:28;2.88;;;0.85;;
26512;SDS011;14186;53.822;10.152;2022-08-30T06:03:28;2.50;;;0.88;;
26512;SDS011;14186;53.822;10.152;2022-08-30T06:08:29;3.88;;;0.85;;
26512;SDS011;14186;53.822;10.152;2022-08-30T06:13:30;2.40;;;1.15;;
26512;SDS011;14186;53.822;10.152;2022-08-30T06:18:31;5.75;;;1.50;;
26512;SDS011;14186;53.822;10.152;2022-08-30T06:23:32;3.45;;;0.95;;
26512;SDS011;14186;53.822;10.152;2022-08-30T06:28:33;1.77;;;0.90;;
26512;SDS011;14186;53.822;10.152;2022-08-30T06:33:34;2.25;;;0.77;;
26512;SDS011;14186;53.822;10.152;2022-08-30T06:38:34;4.90;;;1.92;;
26512;SDS011;14186;53.822;10.152;2022-08-30T06:43:36;2.65;;;0.98;;
26512;SDS011;14186;53.822;10.152;2022-08-30T06:48:36;3.17;;;0.75;;
26512;SDS011;14186;53.822;10.152;2022-08-30T06:53:36;1.42;;;0.65;;
26512;SDS011;14186;53.822;10.152;2022-08-30T06:58:38;2.45;;;1.00;;
26512;SDS011;14186;53.822;10.152;2022-08-30T07:03:38;1.95;;;1.10;;
26512;SDS011;14186;53.822;10.152;2022-08-30T07:08:39;1.75;;;0.90;;
26512;SDS011;14186;53.822;10.152;2022-08-30T07:13:41;2.42;;;0.93;;
26512;SDS011;14186;53.822;10.152;2022-08-30T07:18:42;2.65;;;1.23;;
26512;SDS011;14186;53.822;10.152;2022-08-30T07:23:42;4.57;;;0.93;;
26512;SDS011;14186;53.822;10.152;2022-08-30T07:28:45;1.95;;;0.90;;
26512;SDS011;14186;53.822;10.152;2022-08-30T07:33:46;2.90;;;0.82;;
26512;SDS011;14186;53.822;10.152;2022-08-30T07:38:46;3.83;;;0.70;;
26512;SDS011;14186;53.822;10.152;2022-08-30T07:43:48;1.42;;;0.57;;
26512;SDS011;14186;53.822;10.152;2022-08-30T07:48:50;1.73;;;0.85;;
26512;SDS011;14186;53.822;10.152;2022-08-30T07:53:51;1.35;;;0.60;;
26512;SDS011;14186;53.822;10.152;2022-08-30T07:58:53;3.25;;;0.90;;
26512;SDS011;14186;53.822;10.152;2022-08-30T08:03:53;1.80;;;0.60;;
26512;SDS011;14186;53.822;10.152;2022-08-30T08:08:54;5.30;;;1.48;;
26512;SDS011;14186;53.822;10.152;2022-08-30T08:13:55;2.17;;;0.80;;
26512;SDS011;14186;53.822;10.152;2022-08-30T08:18:55;2.13;;;0.88;;
26512;SDS011;14186;53.822;10.152;2022-08-30T08:23:57;1.83;;;0.60;;
26512;SDS011;14186;53.822;10.152;2022-08-30T08:28:59;1.63;;;0.80;;
26512;SDS011;14186;53.822;10.152;2022-08-30T08:34:00;2.30;;;0.55;;
26512;SDS011;14186;53.822;10.152;2022-08-30T08:39:01;2.65;;;0.73;;
26512;SDS011;14186;53.822;10.152;2022-08-30T08:44:04;1.23;;;0.70;;
26512;SDS011;14186;53.822;10.152;2022-08-30T08:49:06;2.30;;;0.70;;
26512;SDS011;14186;53.822;10.152;2022-08-30T08:54:10;1.55;;;0.57;;
26512;SDS011;14186;53.822;10.152;2022-08-30T08:59:12;2.47;;;0.75;;
26512;SDS011;14186;53.822;10.152;2022-08-30T09:04:14;1.80;;;0.70;;
26512;SDS011;14186;53.822;10.152;2022-08-30T09:09:15;3.10;;;0.70;;
26512;SDS011;14186;53.822;10.152;2022-08-30T09:14:18;1.10;;;0.63;;
26512;SDS011;14186;53.822;10.152;2022-08-30T09:19:28;1.92;;;0.60;;
26512;SDS011;14186;53.822;10.152;2022-08-30T09:24:35;1.35;;;0.60;;
26512;SDS011;14186;53.822;10.152;2022-08-30T09:29:38;3.58;;;0.60;;
26512;SDS011;14186;53.822;10.152;2022-08-30T09:34:48;1.45;;;0.60;;
26512;SDS011;14186;53.822;10.152;2022-08-30T09:39:48;6.63;;;1.92;;
26512;SDS011;14186;53.822;10.152;2022-08-30T09:44:50;2.22;;;0.80;;
26512;SDS011;14186;53.822;10.152;2022-08-30T09:49:51;4.55;;;0.93;;
26512;SDS011;14186;53.822;10.152;2022-08-30T09:55:04;1.88;;;0.90;;
26512;SDS011;14186;53.822;10.152;2022-08-30T10:00:09;2.20;;;0.90;;
26512;SDS011;14186;53.822;10.152;2022-08-30T10:05:15;2.58;;;0.63;;
26512;SDS011;14186;53.822;10.152;2022-08-30T10:10:22;1.45;;;0.55;;
26512;SDS011;14186;53.822;10.152;2022-08-30T10:15:29;2.78;;;0.80;;
26512;SDS011;14186;53.822;10.152;2022-08-30T10:20:35;3.50;;;1.25;;
26512;SDS011;14186;53.822;10.152;2022-08-30T10:25:38;3.97;;;0.70;;
26512;SDS011;14186;53.822;10.152;2022-08-30T10:30:41;5.82;;;0.60;;
26512;SDS011;14186;53.822;10.152;2022-08-30T10:40:45;1.30;;;0.68;;
26512;SDS011;14186;53.822;10.152;2022-08-30T10:45:47;3.83;;;0.70;;
26512;SDS011;14186;53.822;10.152;2022-08-30T10:50:50;2.00;;;0.70;;
26512;SDS011;14186;53.822;10.152;2022-08-30T10:55:52;2.63;;;0.90;;
26512;SDS011;14186;53.822;10.152;2022-08-30T11:00:59;3.13;;;0.65;;
26512;SDS011;14186;53.822;10.152;2022-08-30T11:06:14;2.33;;;0.60;;
26512;SDS011;14186;53.822;10.152;2022-08-30T11:11:19;4.85;;;0.90;;
26512;SDS011;14186;53.822;10.152;2022-08-30T11:16:33;1.25;;;0.52;;
26512;SDS011;14186;53.822;10.152;2022-08-30T11:21:35;2.70;;;0.82;;
26512;SDS011;14186;53.822;10.152;2022-08-30T11:26:55;1.50;;;0.68;;
26512;SDS011;14186;53.822;10.152;2022-08-30T11:31:58;2.65;;;0.70;;
26512;SDS011;14186;53.822;10.152;2022-08-30T11:37:00;4.07;;;0.90;;
26512;SDS011;14186;53.822;10.152;2022-08-30T11:42:08;2.67;;;0.93;;
26512;SDS011;14186;53.822;10.152;2022-08-30T11:52:32;1.58;;;0.52;;
26512;SDS011;14186;53.822;10.152;2022-08-30T11:57:36;1.00;;;0.50;;
26512;SDS011;14186;53.822;10.152;2022-08-30T12:02:43;2.28;;;0.95;;
26512;SDS011;14186;53.822;10.152;2022-08-30T12:07:56;1.20;;;0.50;;
26512;SDS011;14186;53.822;10.152;2022-08-30T12:12:56;2.53;;;0.70;;
26512;SDS011;14186;53.822;10.152;2022-08-30T12:17:57;2.65;;;0.50;;
26512;SDS011;14186;53.822;10.152;2022-08-30T12:22:59;1.00;;;0.55;;
26512;SDS011;14186;53.822;10.152;2022-08-30T12:28:15;1.40;;;0.60;;
26512;SDS011;14186;53.822;10.152;2022-08-30T12:33:22;4.13;;;0.80;;
26512;SDS011;14186;53.822;10.152;2022-08-30T12:38:24;3.08;;;0.90;;
26512;SDS011;14186;53.822;10.152;2022-08-30T12:43:26;2.45;;;0.80;;
26512;SDS011;14186;53.822;10.152;2022-08-30T12:48:26;1.77;;;0.77;;
26512;SDS011;14186;53.822;10.152;2022-08-30T12:53:29;2.55;;;0.80;;
26512;SDS011;14186;53.822;10.152;2022-08-30T12:58:34;1.52;;;0.52;;
26512;SDS011;14186;53.822;10.152;2022-08-30T13:03:35;3.55;;;0.93;;
26512;SDS011;14186;53.822;10.152;2022-08-30T13:08:47;3.08;;;0.60;;
26512;SDS011;14186;53.822;10.152;2022-08-30T13:13:48;2.25;;;0.70;;
26512;SDS011;14186;53.822;10.152;2022-08-30T13:18:49;3.67;;;0.70;;
26512;SDS011;14186;53.822;10.152;2022-08-30T13:23:54;5.05;;;1.15;;
26512;SDS011;14186;53.822;10.152;2022-08-30T13:28:55;2.88;;;0.77;;
26512;SDS011;14186;53.822;10.152;2022-08-30T13:33:56;2.15;;;0.68;;
26512;SDS011;14186;53.822;10.152;2022-08-30T13:38:58;4.50;;;0.60;;
26512;SDS011;14186;53.822;10.152;2022-08-30T13:43:58;1.30;;;0.50;;
26512;SDS011;14186;53.822;10.152;2022-08-30T13:49:00;3.17;;;0.60;;
26512;SDS011;14186;53.822;10.152;2022-08-30T13:54:02;2.85;;;0.90;;
26512;SDS011;14186;53.822;10.152;2022-08-30T13:59:02;1.83;;;0.77;;
26512;SDS011;14186;53.822;10.152;2022-08-30T14:04:03;1.05;;;0.60;;
26512;SDS011;14186;53.822;10.152;2022-08-30T14:09:04;2.25;;;0.60;;
26512;SDS011;14186;53.822;10.152;2022-08-30T14:14:05;1.45;;;0.70;;
26512;SDS011;14186;53.822;10.152;2022-08-30T14:19:05;2.20;;;0.50;;
26512;SDS011;14186;53.822;10.152;2022-08-30T14:24:07;2.00;;;0.60;;
26512;SDS011;14186;53.822;10.152;2022-08-30T14:29:09;3.53;;;0.70;;
26512;SDS011;14186;53.822;10.152;2022-08-30T14:34:10;1.45;;;0.68;;
26512;SDS011;14186;53.822;10.152;2022-08-30T14:39:14;0.82;;;0.60;;
26512;SDS011;14186;53.822;10.152;2022-08-30T14:44:15;1.73;;;0.70;;
26512;SDS011;14186;53.822;10.152;2022-08-30T14:49:15;0.95;;;0.60;;
26512;SDS011;14186;53.822;10.152;2022-08-30T14:54:18;2.58;;;0.60;;
26512;SDS011;14186;53.822;10.152;2022-08-30T14:59:18;5.22;;;0.50;;
26512;SDS011;14186;53.822;10.152;2022-08-30T15:04:18;3.13;;;0.52;;
26512;SDS011;14186;53.822;10.152;2022-08-30T15:09:20;2.25;;;0.40;;
26512;SDS011;14186;53.822;10.152;2022-08-30T15:14:21;1.15;;;0.45;;
26512;SDS011;14186;53.822;10.152;2022-08-30T15:19:21;0.40;;;0.40;;
26512;SDS011;14186;53.822;10.152;2022-08-30T15:24:23;1.40;;;0.30;;
26512;SDS011;14186;53.822;10.152;2022-08-30T15:29:23;1.45;;;0.40;;
26512;SDS011;14186;53.822;10.152;2022-08-30T15:34:25;0.65;;;0.30;;
26512;SDS011;14186;53.822;10.152;2022-08-30T15:39:26;0.98;;;0.40;;
26512;SDS011;14186;53.822;10.152;2022-08-30T15:44:27;0.55;;;0.30;;
26512;SDS011;14186;53.822;10.152;2022-08-30T15:49:27;1.63;;;0.40;;
26512;SDS011;14186;53.822;10.152;2022-08-30T15:54:30;0.38;;;0.20;;
26512;SDS011;14186;53.822;10.152;2022-08-30T15:59:30;1.70;;;0.30;;
26512;SDS011;14186;53.822;10.152;2022-08-30T16:04:31;0.77;;;0.20;;
26512;SDS011;14186;53.822;10.152;2022-08-30T16:09:34;1.80;;;0.35;;
26512;SDS011;14186;53.822;10.152;2022-08-30T16:14:34;0.35;;;0.20;;
26512;SDS011;14186;53.822;10.152;2022-08-30T16:19:35;0.52;;;0.20;;
26512;SDS011;14186;53.822;10.152;2022-08-30T16:24:37;0.70;;;0.25;;
26512;SDS011;14186;53.822;10.152;2022-08-30T16:29:39;0.70;;;0.20;;
26512;SDS011;14186;53.822;10.152;2022-08-30T16:34:39;0.40;;;0.20;;
26512;SDS011;14186;53.822;10.152;2022-08-30T16:39:41;0.35;;;0.20;;
26512;SDS011;14186;53.822;10.152;2022-08-30T16:44:41;0.80;;;0.30;;
26512;SDS011;14186;53.822;10.152;2022-08-30T16:49:41;0.10;;;0.10;;
26512;SDS011;14186;53.822;10.152;2022-08-30T16:54:43;0.45;;;0.20;;
26512;SDS011;14186;53.822;10.152;2022-08-30T16:59:44;0.47;;;0.30;;
26512;SDS011;14186;53.822;10.152;2022-08-30T17:04:44;0.35;;;0.20;;
26512;SDS011;14186;53.822;10.152;2022-08-30T17:09:45;0.98;;;0.20;;
26512;SDS011;14186;53.822;10.152;2022-08-30T17:14:46;0.52;;;0.22;;
26512;SDS011;14186;53.822;10.152;2022-08-30T17:19:46;1.30;;;0.20;;
26512;SDS011;14186;53.822;10.152;2022-08-30T17:24:48;0.20;;;0.10;;
26512;SDS011;14186;53.822;10.152;2022-08-30T17:29:49;0.63;;;0.20;;
26512;SDS011;14186;53.822;10.152;2022-08-30T17:34:49;0.70;;;0.20;;
26512;SDS011;14186;53.822;10.152;2022-08-30T17:39:51;0.40;;;0.20;;
26512;SDS011;14186;53.822;10.152;2022-08-30T17:44:51;0.80;;;0.30;;
26512;SDS011;14186;53.822;10.152;2022-08-30T17:49:51;0.70;;;0.30;;
26512;SDS011;14186;53.822;10.152;2022-08-30T17:54:53;0.82;;;0.20;;
26512;SDS011;14186;53.822;10.152;2022-08-30T17:59:53;1.08;;;0.30;;
26512;SDS011;14186;53.822;10.152;2022-08-30T18:04:54;0.30;;;0.20;;
26512;SDS011;14186;53.822;10.152;2022-08-30T18:09:55;0.30;;;0.20;;
26512;SDS011;14186;53.822;10.152;2022-08-30T18:14:55;1.52;;;0.28;;
26512;SDS011;14186;53.822;10.152;2022-08-30T18:19:56;0.60;;;0.30;;
26512;SDS011;14186;53.822;10.152;2022-08-30T18:24:57;0.40;;;0.20;;
26512;SDS011;14186;53.822;10.152;2022-08-30T18:29:58;0.57;;;0.20;;
26512;SDS011;14186;53.822;10.152;2022-08-30T18:34:58;0.55;;;0.30;;
26512;SDS011;14186;53.822;10.152;2022-08-30T18:40:00;0.73;;;0.22;;
26512;SDS011;14186;53.822;10.152;2022-08-30T18:45:00;2.60;;;0.30;;
26512;SDS011;14186;53.822;10.152;2022-08-30T18:50:02;2.30;;;0.35;;
26512;SDS011;14186;53.822;10.152;2022-08-30T18:55:05;1.67;;;0.20;;
26512;SDS011;14186;53.822;10.152;2022-08-30T19:00:06;2.38;;;0.30;;
26512;SDS011;14186;53.822;10.152;2022-08-30T19:05:07;1.40;;;0.20;;
26512;SDS011;14186;53.822;10.152;2022-08-30T19:10:10;2.60;;;0.30;;
26512;SDS011;14186;53.822;10.152;2022-08-30T19:15:11;0.47;;;0.25;;
26512;SDS011;14186;53.822;10.152;2022-08-30T19:20:13;1.90;;;0.30;;
26512;SDS011;14186;53.822;10.152;2022-08-30T19:25:15;1.75;;;0.20;;
26512;SDS011;14186;53.822;10.152;2022-08-30T19:30:16;0.70;;;0.30;;
26512;SDS011;14186;53.822;10.152;2022-08-30T19:35:18;0.30;;;0.20;;
26512;SDS011;14186;53.822;10.152;2022-08-30T19:40:20;0.85;;;0.30;;
26512;SDS011;14186;53.822;10.152;2022-08-30T19:45:20;4.13;;;0.68;;
26512;SDS011;14186;53.822;10.152;2022-08-30T19:50:21;1.13;;;0.30;;
26512;SDS011;14186;53.822;10.152;2022-08-30T19:55:23;1.83;;;0.40;;
26512;SDS011;14186;53.822;10.152;2022-08-30T20:00:26;4.85;;;0.60;;
26512;SDS011;14186;53.822;10.152;2022-08-30T20:05:26;0.57;;;0.30;;
26512;SDS011;14186;53.822;10.152;2022-08-30T20:10:28;1.80;;;0.40;;
26512;SDS011;14186;53.822;10.152;2022-08-30T20:15:30;1.33;;;0.32;;
26512;SDS011;14186;53.822;10.152;2022-08-30T20:20:31;0.32;;;0.25;;
26512;SDS011;14186;53.822;10.152;2022-08-30T20:25:32;2.20;;;0.30;;
26512;SDS011;14186;53.822;10.152;2022-08-30T20:30:32;1.48;;;0.45;;
26512;SDS011;14186;53.822;10.152;2022-08-30T20:35:35;0.70;;;0.35;;
26512;SDS011;14186;53.822;10.152;2022-08-30T20:40:38;3.75;;;0.55;;
26512;SDS011;14186;53.822;10.152;2022-08-30T20:45:38;1.67;;;0.50;;
26512;SDS011;14186;53.822;10.152;2022-08-30T20:50:38;3.45;;;0.38;;
26512;SDS011;14186;53.822;10.152;2022-08-30T20:55:41;2.05;;;0.70;;
26512;SDS011;14186;53.822;10.152;2022-08-30T21:00:41;1.15;;;0.32;;
26512;SDS011;14186;53.822;10.152;2022-08-30T21:05:41;0.93;;;0.40;;
26512;SDS011;14186;53.822;10.152;2022-08-30T21:10:45;2.65;;;1.05;;
26512;SDS011;14186;53.822;10.152;2022-08-30T21:15:45;2.42;;;0.38;;
26512;SDS011;14186;53.822;10.152;2022-08-30T21:20:49;1.15;;;0.40;;
26512;SDS011;14186;53.822;10.152;2022-08-30T21:25:50;1.73;;;0.52;;
26512;SDS011;14186;53.822;10.152;2022-08-30T21:31:01;1.17;;;0.50;;
26512;SDS011;14186;53.822;10.152;2022-08-30T21:36:09;2.33;;;0.60;;
26512;SDS011;14186;53.822;10.152;2022-08-30T21:41:11;1.15;;;0.68;;
26512;SDS011;14186;53.822;10.152;2022-08-30T21:46:11;1.98;;;0.57;;
26512;SDS011;14186;53.822;10.152;2022-08-30T21:51:12;1.33;;;0.52;;
26512;SDS011;14186;53.822;10.152;2022-08-30T21:56:16;1.63;;;0.70;;
26512;SDS011;14186;53.822;10.152;2022-08-30T22:01:17;1.60;;;0.70;;
26512;SDS011;14186;53.822;10.152;2022-08-30T22:06:17;1.65;;;0.75;;
26512;SDS011;14186;53.822;10.152;2022-08-30T22:11:19;1.17;;;0.60;;
26512;SDS011;14186;53.822;10.152;2022-08-30T22:16:20;1.98;;;0.60;;
26512;SDS011;14186;53.822;10.152;2022-08-30T22:21:21;1.13;;;0.50;;
26512;SDS011;14186;53.822;10.152;2022-08-30T22:26:24;2.17;;;1.00;;
26512;SDS011;14186;53.822;10.152;2022-08-30T22:31:24;3.28;;;0.80;;
26512;SDS011;14186;53.822;10.152;2022-08-30T22:36:25;2.08;;;1.25;;
26512;SDS011;14186;53.822;10.152;2022-08-30T22:41:28;1.95;;;0.90;;
26512;SDS011;14186;53.822;10.152;2022-08-30T22:46:28;2.40;;;0.85;;
26512;SDS011;14186;53.822;10.152;2022-08-30T22:51:29;2.30;;;1.00;;
26512;SDS011;14186;53.822;10.152;2022-08-30T22:56:33;2.10;;;0.90;;
26512;SDS011;14186;53.822;10.152;2022-08-30T23:01:35;2.55;;;0.85;;
26512;SDS011;14186;53.822;10.152;2022-08-30T23:06:36;4.00;;;1.02;;
26512;SDS011;14186;53.822;10.152;2022-08-30T23:11:39;4.85;;;1.20;;
26512;SDS011;14186;53.822;10.152;2022-08-30T23:16:39;5.35;;;0.93;;
26512;SDS011;14186;53.822;10.152;2022-08-30T23:21:39;2.00;;;0.70;;
26512;SDS011;14186;53.822;10.152;2022-08-30T23:26:41;2.35;;;0.70;;
26512;SDS011;14186;53.822;10.152;2022-08-30T23:31:42;1.92;;;0.90;;
26512;SDS011;14186;53.822;10.152;2022-08-30T23:36:43;2.45;;;0.80;;
26512;SDS011;14186;53.822;10.152;2022-08-30T23:41:44;3.20;;;0.80;;
26512;SDS011;14186;53.822;10.152;2022-08-30T23:46:44;1.83;;;0.80;;
26512;SDS011;14186;53.822;10.152;2022-08-30T23:51:45;2.05;;;0.70;;
26512;SDS011;14186;53.822;10.152;2022-08-30T23:56:46;4.20;;;0.93;;
